Headquarters, Valles Caldera, New Mexico Weather observations

Data are for 10 minute period ending at time listed.
 Day   Time   Solar   Ave.   Ave.  Ave.  Vector  Max.   Baro.   Total    
  of    of     Rad.   Air    Rel.  Wind   Wind   Wind  Press.  Precip.   
Year   Day            Temp.  Hum.  Speed  Dir.   Gust                    
2014   (MST)  Kw/m2    F      %     mph   deg.    mph    mb.     in.     
-------------------------------------------------------------------------
 244    8:20   0.43   65.0    40    2.6    66     6.0   744.0    0.00 
 244    8:30   0.46   66.8    37    2.4   149     4.2   744.0    0.00 
 244    8:40   0.49   68.3    37    2.9   149     5.4   744.0    0.00 
 244    8:50   0.52   67.2    32    5.6    76    12.5   744.0    0.00 
 244    9:00   0.54   66.9    27    9.2   348    21.5   743.9    0.00 
 244    9:10   0.56   67.6    26    7.0   331    11.9   744.0    0.00 
 244    9:20   0.58   68.5    26    4.9   350     9.6   744.0    0.00 
 244    9:30   0.60   68.4    29    7.3   342    14.9   744.0    0.00 
 244    9:40   0.62   69.7    29    9.5   220    14.9   744.0    0.00 
 244    9:50   0.63   70.0    28    8.5   226    14.9   744.0    0.00 
 244   10:00   0.65   69.9    29    8.8   204    19.7   744.1    0.00 
 244   10:10   0.66   70.4    30    7.5   205    13.7   744.0    0.00 
 244   10:20   0.67   71.3    28    7.6   225    17.3   744.0    0.00 
 244   10:30   0.69   71.3    27    8.6   222    17.3   744.0    0.00 
 244   10:40   0.70   71.0    28   11.5   227    19.7   744.0    0.00 
 244   10:50   0.71   70.8    27   12.6   233    20.9   744.0    0.00 
 244   11:00   0.72   70.8    27   10.7   224    23.3   744.0    0.00 
 244   11:10   0.73   71.2    27    9.9   220    17.9   744.0    0.00 
 244   11:20   0.74   71.6    27    9.8   213    16.7   743.9    0.00 
 244   11:30   0.75   71.6    27    7.1   241    16.7   743.9    0.00 
 244   11:40   0.76   72.1    27   10.8   221    25.6   743.9    0.00 
 244   11:50   0.78   71.5    27    8.4   197    22.1   743.9    0.00 
 244   12:00   0.79   71.1    28    8.7   246    18.5   743.9    0.00 
 244   12:10   0.80   70.9    29    7.9   261    17.3   743.9    0.00 
 244   12:20   0.81   71.8    29   10.9   228    20.9   743.8    0.00 
 244   12:30   0.83   71.3    27    6.5   280    14.9   743.9    0.00 
 244   12:40   0.83   71.8    28    9.3   242    23.9   743.8    0.00 
 244   12:50   0.82   71.8    27    8.2   228    20.9   743.8    0.00 
 244   13:00   0.80   71.6    25    9.5   261    23.9   743.7    0.00 
 244   13:10   0.79   72.1    25    7.7   245    13.1   743.5    0.00 
 244   13:20   0.78   72.5    25    6.6   297    16.7   743.4    0.00 
 244   13:30   0.76   73.2    26    8.0   223    24.5   743.2    0.00 
 244   13:40   0.75   73.4    24    6.2   290    16.1   743.2    0.00 
 244   13:50   0.73   73.5    24    8.9   216    17.9   743.1    0.00 
 244   14:00   0.72   73.7    23    7.3   227    15.5   743.0    0.00 
 244   14:10   0.70   73.0    22   11.1   244    22.7   743.1    0.00 
 244   14:20   0.68   72.7    24    6.8   276    17.9   743.0    0.00 
 244   14:30   0.66   73.2    23   11.4   232    21.5   743.0    0.00 
 244   14:40   0.64   73.1    24    9.1   233    16.7   743.0    0.00 
 244   14:50   0.62   73.8    23    4.6   204    12.5   742.9    0.00 
 244   15:00   0.60   73.7    23    6.8   220    16.7   742.9    0.00 
 244   15:10   0.57   73.3    22   11.2   241    20.9   742.8    0.00 
 244   15:20   0.55   73.1    23    8.1   225    15.5   742.8    0.00 
 244   15:30   0.52   74.5    22    4.1   266     9.0   742.8    0.00 
 244   15:40   0.49   74.6    22    7.5   230    16.7   742.7    0.00 
 244   15:50   0.47   72.9    22   12.3   223    23.9   742.7    0.00 
 244   16:00   0.44   72.6    23    9.6   221    20.3   742.8    0.00 
 244   16:10   0.41   72.9    22    4.8   302    15.5   742.8    0.00 
 244   16:20   0.38   73.2    22    6.4   256    13.1   742.8    0.00 
 244   16:30   0.35   72.5    22    8.4   226    13.7   742.8    0.00 
 244   16:40   0.32   72.0    23    9.0   229    19.7   742.8    0.00 
 244   16:50   0.29   72.1    22    5.7   276    12.5   742.9    0.00 
 244   17:00   0.26   72.4    22    5.5   256    14.9   742.9    0.00 
 244   17:10   0.22   71.3    22    9.0   224    14.9   742.9    0.00 
 244   17:20   0.19   70.2    23   10.5   225    17.9   742.9    0.00 
 244   17:30   0.16   69.7    23    8.5   235    16.1   742.9    0.00 
 244   17:40   0.07   69.3    24    5.9   240    11.9   742.9    0.00 
 244   17:50   0.01   66.9    26    4.6   272    11.3   743.0    0.00 
 244   18:00   0.01   64.9    29    5.0   250     9.6   743.0    0.00 
 244   18:10   0.01   64.7    28    5.2   256     9.0   743.0    0.00 
 244   18:20   0.01   65.8    26    4.7   260     9.0   743.1    0.00 
 244   18:30   0.01   63.9    31    4.8   288     6.6   743.2    0.00 
 244   18:40   0.00   60.2    38    5.3   281     6.6   743.3    0.00 
 244   18:50   0.00   58.6    40    5.6   279     7.2   743.3    0.00 
 244   19:00   0.00   57.5    43    5.5   271     7.8   743.4    0.00 
 244   19:10   0.00   56.4    43    5.2   267     7.2   743.5    0.00 
 244   19:20   0.00   57.8    38    5.1   255     7.2   743.5    0.00 
 244   19:30   0.00   59.7    33    4.4   266     7.8   743.5    0.00 
 244   19:40   0.00   61.5    29    4.3   276    10.2   743.5    0.00 
 244   19:50   0.00   62.6    28    3.3   268     6.6   743.7    0.00 
 244   20:00   0.00   62.4    27    3.1   300     6.0   743.8    0.00 
 244   20:10   0.00   62.3    28    3.4   360     7.8   743.8    0.00 
 244   20:20   0.00   58.6    35    2.1    30     4.8   743.9    0.00 
 244   20:30   0.00   57.3    36    2.0   339     6.0   743.9    0.00 
 244   20:40   0.00   58.0    33    3.2   322     9.0   744.0    0.00 
 244   20:50   0.00   62.1    27    4.4   308    10.2   743.9    0.00 
 244   21:00   0.00   62.8    27    3.3   314     7.8   744.0    0.00 
 244   21:10   0.00   63.3    26    4.9   298     9.0   744.1    0.00 
 244   21:20   0.00   63.7    26    4.8   304    12.5   744.1    0.00 
 244   21:30   0.00   63.6    26    4.0   296     7.8   744.1    0.00 
 244   21:40   0.00   62.9    27    2.9   306     6.0   744.0    0.00 
 244   21:50   0.00   57.8    34    2.2    75     4.2   744.1    0.00 
 244   22:00   0.00   55.9    36    2.0     3     4.2   744.1    0.00 
 244   22:10   0.00   55.3    38    1.9   349     6.0   744.1    0.00 
 244   22:20   0.00   55.0    39    3.0   335     5.4   744.0    0.00 
 244   22:30   0.00   54.0    41    3.9   292     5.4   743.9    0.00 
 244   22:40   0.00   52.9    43    3.1   242     6.6   744.0    0.00 
 244   22:50   0.00   52.3    44    2.5   249     4.2   743.9    0.00 
 244   23:00   0.00   52.1    44    2.5   287     4.2   743.8    0.00 
 244   23:10   0.00   53.2    40    3.4   306     6.0   743.8    0.00 
 244   23:20   0.00   51.7    45    3.4   268     5.4   743.8    0.00 
 244   23:30   0.00   49.7    50    3.6   245     4.8   743.9    0.00 
 244   23:40   0.00   49.7    50    4.4   258     6.0   743.8    0.00 
 244   23:50   0.00   49.6    51    4.6   274     6.0   743.8    0.00 
 245    0:00   0.00   49.7    50    3.9   276     7.2   743.8    0.00 
 245    0:10   0.00   49.3    52    4.4   281     6.0   743.7    0.00 
 245    0:20   0.00   49.0    52    2.3   300     4.2   743.7    0.00 
 245    0:30   0.00   49.2    51    3.6   263     4.8   743.7    0.00 
 245    0:40   0.00   48.8    52    3.8   265     5.4   743.6    0.00 
 245    0:50   0.00   48.8    52    4.2   264     5.4   743.6    0.00 
 245    1:00   0.00   48.5    53    4.7   282     5.4   743.6    0.00 
 245    1:10   0.00   48.1    55    4.7   280     6.0   743.6    0.00 
 245    1:20   0.00   46.1    59    2.6    10     5.4   743.7    0.00 
 245    1:30   0.00   42.5    67    2.0   240     4.2   743.7    0.00 
 245    1:40   0.00   43.3    64    4.9   242     6.0   743.6    0.00 
 245    1:50   0.00   44.5    62    4.3   272     5.4   743.6    0.00 
 245    2:00   0.00   46.5    57    3.3   285     4.8   743.6    0.00 
 245    2:10   0.00   47.0    56    1.8   305     3.0   743.7    0.00 
 245    2:20   0.00   46.9    54    2.0   270     3.6   743.7    0.00 
 245    2:30   0.00   47.1    54    3.3   288     4.2   743.7    0.00 
 245    2:40   0.00   46.7    55    3.5   271     4.8   743.8    0.00 
 245    2:50   0.00   46.5    55    3.7   262     4.8   743.8    0.00 
 245    3:00   0.00   46.3    56    4.5   284     5.4   743.8    0.00 
 245    3:10   0.00   46.1    57    3.8   290     4.8   743.8    0.00 
 245    3:20   0.00   44.1    62    2.1   350     3.6   743.8    0.00 
 245    3:30   0.00   42.9    65    1.5   299     3.0   743.8    0.00 
 245    3:40   0.00   43.6    64    1.8   352     3.0   743.8    0.00 
 245    3:50   0.00   42.9    66    1.6   322     3.6   743.9    0.00 
 245    4:00   0.00   43.0    65    3.6   244     4.8   743.9    0.00 
 245    4:10   0.00   43.9    62    3.3   275     4.8   743.9    0.00 
 245    4:20   0.00   43.9    62    1.8   327     3.6   744.0    0.00 
 245    4:30   0.00   41.0    69    0.8   262     3.0   744.1    0.00 
 245    4:40   0.00   41.7    66    2.8   265     3.6   744.2    0.00 
 245    4:50   0.00   43.5    62    2.6   283     3.6   744.2    0.00 
 245    5:00   0.00   44.0    60    2.1   277     3.6   744.4    0.00 
 245    5:10   0.00   44.5    60    2.5   304     3.0   744.4    0.00 
 245    5:20   0.00   44.5    60    1.9   269     3.0   744.5    0.00 
 245    5:30   0.00   43.1    63    1.2    32     3.0   744.6    0.00 
 245    5:40   0.00   42.4    66    1.6   292     3.0   744.6    0.00 
 245    5:50   0.01   42.9    64    2.2   295     3.0   744.7    0.00 
 245    6:00   0.02   43.6    63    2.2   263     3.6   744.7    0.00 
 245    6:10   0.04   45.8    60    1.5    31     3.6   744.8    0.00 
 245    6:20   0.07   46.1    61    0.5   326     1.8   744.9    0.00 
 245    6:30   0.11   49.9    55    1.3   250     2.4   744.9    0.00 
 245    6:40   0.13   54.3    51    0.3   129     1.8   745.0    0.00 
 245    6:50   0.16   52.2    56    1.7   174     3.0   745.1    0.00 
 245    7:00   0.19   52.7    56    2.3   130     4.2   745.2    0.00 
 245    7:10   0.22   51.1    63    3.2    74     4.2   745.3    0.00 
 245    7:20   0.25   50.7    63    2.7    81     5.4   745.4    0.00 
 245    7:30   0.28   52.4    57    2.2    65     3.6   745.5    0.00 
 245    7:40   0.31   54.9    49    1.8   117     3.0   745.6    0.00 
 245    7:50   0.34   57.4    46    1.8    86     4.2   745.6    0.00 
 245    8:00   0.37   57.9    46    3.3    81     4.8   745.5    0.00 
 245    8:10   0.40   58.9    48    2.6    95     5.4   745.6    0.00 

Return to Headquarters, Valles Caldera graphs page.


Western Regional Climate Center,wrcc@dri.edu